Time;durP1;ratioP1;P1;durP2;ratioP2;P2;SDS_P1;SDS_P2;PMS_P1;PMS_P2;Temp;Humidity;BMP_temperature;BMP_pressure;BME280_temperature;BME280_humidity;BME280_pressure;Samples;Min_cycle;Max_cycle;Signal;HPM_P1;HPM_P2
2021/12/12 00:02:32;;;;;;;21.55;7.43;;;5.30;99.90;;;3.57;100.00;101132.59;5047302;28;20049;-83
2021/12/12 00:05:07;;;;;;;24.17;8.60;;;5.30;99.90;;;3.53;100.00;101137.34;5029626;28;20088;-83
2021/12/12 00:07:35;;;;;;;19.25;7.68;;;5.30;99.90;;;3.57;100.00;101129.03;5057706;28;20032;-83
2021/12/12 00:10:12;;;;;;;18.88;7.55;;;5.40;99.90;;;3.59;100.00;101125.25;5070995;28;20147;-83
2021/12/12 00:12:47;;;;;;;16.90;7.53;;;5.40;99.90;;;3.66;100.00;101122.91;5070982;28;20141;-83
2021/12/12 00:15:17;;;;;;;18.38;6.80;;;5.40;99.90;;;3.67;100.00;101119.22;5070940;28;20048;-83
2021/12/12 00:17:44;;;;;;;18.95;7.60;;;5.40;99.90;;;3.65;100.00;101132.81;5069445;28;20094;-83
2021/12/12 00:20:16;;;;;;;19.75;7.03;;;5.40;99.90;;;3.62;100.00;101124.16;5069570;28;20135;-83
2021/12/12 00:22:44;;;;;;;14.52;6.70;;;5.40;99.90;;;3.68;100.00;101129.03;5064534;28;20131;-83
2021/12/12 00:25:14;;;;;;;20.73;7.57;;;5.40;99.90;;;3.70;100.00;101121.69;5070743;28;20044;-83
2021/12/12 00:27:41;;;;;;;16.70;6.72;;;5.40;99.90;;;3.70;100.00;101119.00;5069410;28;20079;-83
2021/12/12 00:30:12;;;;;;;22.38;7.32;;;5.40;99.90;;;3.74;100.00;101123.16;5066840;28;20119;-82
2021/12/12 00:32:40;;;;;;;18.38;7.15;;;5.40;99.90;;;3.74;100.00;101127.69;5070041;28;20156;-83
2021/12/12 00:35:12;;;;;;;17.13;6.70;;;5.40;99.90;;;3.70;100.00;101127.91;5070739;28;20508;-83
2021/12/12 00:37:41;;;;;;;14.82;5.63;;;5.40;99.90;;;3.70;100.00;101124.38;5070540;28;20120;-83
2021/12/12 00:40:19;;;;;;;14.43;6.78;;;5.50;99.90;;;3.70;100.00;101121.69;5076981;28;20105;-83
2021/12/12 00:42:48;;;;;;;15.60;5.95;;;5.50;99.90;;;3.66;100.00;101117.53;5090353;28;20567;-84
2021/12/12 00:45:17;;;;;;;18.98;6.65;;;5.50;99.90;;;3.67;100.00;101114.69;5090509;28;20125;-83
2021/12/12 00:47:46;;;;;;;16.65;5.80;;;5.50;99.90;;;3.73;100.00;101116.03;5090536;28;20040;-83
2021/12/12 00:50:25;;;;;;;17.45;5.80;;;5.50;99.90;;;3.71;100.00;101101.84;5090607;28;20040;-83
2021/12/12 00:52:53;;;;;;;18.88;6.93;;;5.50;99.90;;;3.67;100.00;101100.41;5090260;28;20109;-83
2021/12/12 00:55:22;;;;;;;15.60;6.57;;;5.60;99.90;;;3.70;100.00;101092.06;5090561;28;20044;-83
2021/12/12 00:57:53;;;;;;;18.52;6.40;;;5.50;99.90;;;3.75;100.00;101097.94;5072041;28;20117;-83
2021/12/12 01:00:26;;;;;;;14.30;6.10;;;5.50;99.90;;;3.73;100.00;101094.50;5090550;28;20040;-83
2021/12/12 01:02:55;;;;;;;18.13;5.65;;;5.50;99.90;;;3.74;100.00;101100.75;5090091;28;20047;-83
2021/12/12 01:05:24;;;;;;;16.35;5.93;;;5.50;99.90;;;3.75;100.00;101097.94;5090208;28;20051;-82
2021/12/12 01:07:53;;;;;;;16.25;5.43;;;5.50;99.90;;;3.73;100.00;101091.81;5090206;28;20147;-83
2021/12/12 01:10:26;;;;;;;16.88;6.20;;;5.50;99.90;;;3.70;100.00;101089.38;5090155;28;20131;-83
2021/12/12 01:12:58;;;;;;;16.98;5.28;;;5.50;99.90;;;3.68;100.00;101091.34;5089841;28;20051;-83
2021/12/12 01:15:35;;;;;;;17.00;5.75;;;5.50;99.90;;;3.70;100.00;101078.63;5089868;28;20123;-83
2021/12/12 01:18:11;;;;;;;22.75;5.82;;;5.50;99.90;;;3.70;100.00;101084.00;5089849;28;20127;-83
2021/12/12 01:20:44;;;;;;;14.52;5.50;;;5.50;99.90;;;3.71;100.00;101093.78;5089784;28;20048;-83
2021/12/12 01:23:19;;;;;;;14.93;5.63;;;5.50;99.90;;;3.67;100.00;101097.69;5089725;28;20059;-83
2021/12/12 01:25:50;;;;;;;16.95;5.43;;;5.50;99.90;;;3.69;100.00;101093.03;5089925;28;20044;-83
2021/12/12 01:28:22;;;;;;;22.73;5.55;;;5.50;99.90;;;3.66;100.00;101083.41;5089904;28;20063;-83
2021/12/12 01:30:51;;;;;;;15.82;6.10;;;5.50;99.90;;;3.73;100.00;101089.13;5089738;28;20777;-82
2021/12/12 01:33:31;;;;;;;15.02;5.30;;;5.50;99.90;;;3.78;100.00;101103.06;5089656;28;20048;-83
2021/12/12 01:36:00;;;;;;;13.10;5.00;;;5.70;99.90;;;3.82;100.00;101098.28;5089724;28;20556;-83
2021/12/12 01:41:14;;;;;;;11.45;4.72;;;5.60;99.90;;;3.85;100.00;101093.50;5089156;28;20278;-83
2021/12/12 01:43:45;;;;;;;14.15;5.28;;;5.50;99.90;;;3.84;100.00;101093.63;5071283;28;20446;-83
2021/12/12 01:46:20;;;;;;;16.20;5.40;;;5.50;99.90;;;3.88;100.00;101095.06;5089523;28;20052;-83
2021/12/12 01:49:00;;;;;;;15.40;4.93;;;5.50;99.90;;;3.88;100.00;101095.97;5089613;28;20058;-82
2021/12/12 01:51:29;;;;;;;17.45;5.22;;;5.60;99.90;;;3.89;100.00;101092.25;5089069;28;20071;-84
2021/12/12 01:54:07;;;;;;;11.50;5.10;;;5.60;99.90;;;3.95;100.00;101088.22;5089121;28;20040;-83
2021/12/12 01:56:42;;;;;;;12.10;4.63;;;5.60;99.90;;;3.95;100.00;101092.75;5089603;28;20047;-83
2021/12/12 01:59:13;;;;;;;14.20;5.25;;;5.60;99.90;;;3.91;100.00;101082.22;5089406;28;20053;-83
2021/12/12 02:01:46;;;;;;;14.68;5.35;;;5.60;99.90;;;3.96;100.00;101080.97;5088898;28;20051;-83
2021/12/12 02:04:19;;;;;;;11.82;4.20;;;5.60;99.90;;;4.00;100.00;101086.00;5089034;28;20130;-83
2021/12/12 02:06:50;;;;;;;15.50;4.97;;;5.60;99.90;;;4.01;100.00;101081.47;5084673;28;20058;-83
2021/12/12 02:09:20;;;;;;;10.40;4.60;;;5.60;99.90;;;4.02;100.00;101085.88;5068878;28;20094;-83
2021/12/12 02:11:53;;;;;;;14.35;4.53;;;5.80;99.90;;;4.04;100.00;101078.53;5050416;28;20424;-83
2021/12/12 02:14:24;;;;;;;8.93;4.03;;;5.60;99.90;;;4.06;100.00;101069.31;5068381;28;20135;-83
2021/12/12 02:16:57;;;;;;;15.63;4.55;;;5.70;99.90;;;4.07;100.00;101075.56;5068467;28;20677;-83
2021/12/12 02:19:31;;;;;;;11.27;4.50;;;5.70;99.90;;;4.09;100.00;101073.59;5050294;28;20398;-83
2021/12/12 02:22:05;;;;;;;13.25;4.68;;;5.70;99.90;;;4.12;100.00;101078.72;5068205;28;20064;-83
2021/12/12 02:35:55;;;;;;;13.55;4.35;;;5.70;99.90;;;4.15;100.00;101073.09;5005714;28;20085;-83
2021/12/12 02:38:27;;;;;;;13.00;4.57;;;5.70;99.90;;;4.09;100.00;101070.88;5035892;28;20068;-83
2021/12/12 02:41:00;;;;;;;12.65;4.20;;;5.70;99.90;;;4.15;100.00;101073.09;5080711;28;20097;-83
2021/12/12 02:43:33;;;;;;;9.88;4.05;;;5.70;99.90;;;4.17;100.00;101073.81;5088385;28;20044;-83
2021/12/12 02:46:01;;;;;;;14.77;4.05;;;5.70;99.90;;;4.20;100.00;101068.16;5088211;28;20249;-83
2021/12/12 02:48:31;;;;;;;14.00;4.45;;;5.80;99.90;;;4.23;100.00;101064.34;5088328;28;20044;-83
2021/12/12 02:51:04;;;;;;;17.58;4.68;;;5.80;99.90;;;4.21;100.00;101067.19;5088293;28;20507;-83
2021/12/12 02:53:44;;;;;;;9.68;3.75;;;5.80;99.90;;;4.24;100.00;101056.13;5073314;28;20045;-83
2021/12/12 02:56:19;;;;;;;13.52;4.50;;;5.80;99.90;;;4.23;100.00;101058.97;5068103;28;20414;-83
2021/12/12 02:58:48;;;;;;;11.27;3.78;;;5.80;99.90;;;4.24;100.00;101058.81;5068079;28;20048;-83
2021/12/12 03:01:21;;;;;;;11.23;4.00;;;5.80;99.90;;;4.28;100.00;101060.28;5067658;28;20106;-83
2021/12/12 03:03:51;;;;;;;11.85;4.13;;;5.90;99.90;;;4.31;100.00;101059.16;5067997;28;20117;-83
2021/12/12 03:06:22;;;;;;;10.75;3.88;;;5.90;99.90;;;4.29;100.00;101053.91;5048920;28;20144;-83
2021/12/12 03:08:53;;;;;;;9.13;3.90;;;5.80;99.90;;;4.35;100.00;101059.75;5067832;28;20067;-83
2021/12/12 03:11:24;;;;;;;14.98;4.70;;;6.10;99.90;;;4.35;100.00;101060.59;5067645;28;20124;-83
2021/12/12 03:13:53;;;;;;;12.98;3.70;;;5.90;99.90;;;4.37;100.00;101055.09;5067743;28;20044;-83
2021/12/12 03:16:20;;;;;;;10.13;4.20;;;5.90;99.90;;;4.37;100.00;101060.47;5067825;28;20040;-83
2021/12/12 03:18:47;;;;;;;10.65;3.78;;;5.90;99.90;;;4.39;100.00;101053.13;5067745;28;20094;-83
2021/12/12 03:21:30;;;;;;;10.50;3.72;;;5.90;99.90;;;4.33;100.00;101061.75;5067347;28;20504;-83
2021/12/12 03:24:04;;;;;;;13.25;4.30;;;5.90;99.90;;;4.37;100.00;101071.25;5067671;28;20055;-83
2021/12/12 03:26:33;;;;;;;13.55;4.18;;;5.90;99.90;;;4.39;100.00;101058.50;5067844;28;20198;-83
2021/12/12 03:29:01;;;;;;;10.65;3.65;;;5.90;99.90;;;4.39;100.00;101063.91;5067683;28;20527;-83
2021/12/12 03:31:32;;;;;;;13.13;4.53;;;5.90;99.90;;;4.43;100.00;101070.72;5067365;28;20045;-83
2021/12/12 03:34:00;;;;;;;13.30;4.28;;;6.00;99.90;;;4.41;100.00;101064.63;5067455;28;20051;-84
2021/12/12 03:36:28;;;;;;;12.25;3.70;;;6.00;99.90;;;4.44;100.00;101061.69;5067771;28;20131;-83
2021/12/12 03:39:00;;;;;;;13.38;4.18;;;6.00;99.90;;;4.48;100.00;101057.72;5067700;28;20072;-83
2021/12/12 03:41:37;;;;;;;10.20;4.20;;;6.00;99.90;;;4.45;100.00;101060.66;5086714;28;20134;-83
2021/12/12 03:44:11;;;;;;;18.05;3.85;;;6.00;99.90;;;4.47;100.00;101062.28;5090248;28;20139;-83
2021/12/12 03:46:40;;;;;;;15.48;3.65;;;6.00;99.90;;;4.47;100.00;101051.50;5071371;28;20139;-83
2021/12/12 03:49:09;;;;;;;17.15;4.53;;;6.00;99.90;;;4.50;100.00;101055.75;5071208;28;20068;-83
2021/12/12 03:51:39;;;;;;;17.33;3.80;;;6.00;99.90;;;4.50;100.00;101050.34;5071012;28;20056;-83
2021/12/12 03:54:07;;;;;;;16.92;4.55;;;6.00;99.90;;;4.54;100.00;101051.81;5071226;28;20048;-83
2021/12/12 03:56:39;;;;;;;13.95;4.50;;;6.10;99.90;;;4.57;100.00;101050.66;5071178;28;20048;-83
2021/12/12 03:59:06;;;;;;;11.65;3.90;;;6.10;99.90;;;4.59;100.00;101054.97;5071114;28;20508;-83
2021/12/12 04:01:40;;;;;;;13.30;4.05;;;6.10;99.90;;;4.61;100.00;101058.38;5070713;28;20115;-83
2021/12/12 04:04:13;;;;;;;10.00;4.28;;;6.10;99.90;;;4.62;100.00;101054.69;5071031;28;20044;-83
2021/12/12 04:06:41;;;;;;;18.02;4.90;;;6.10;99.90;;;4.63;100.00;101055.56;5071017;28;20079;-83
2021/12/12 04:09:13;;;;;;;13.00;4.30;;;6.10;99.90;;;4.64;100.00;101046.47;5070947;28;20047;-83
2021/12/12 04:11:47;;;;;;;16.95;4.25;;;6.10;99.90;;;4.67;100.00;101044.34;5070673;28;20124;-83
2021/12/12 04:14:15;;;;;;;16.15;3.78;;;6.10;99.90;;;4.65;100.00;101048.19;5052678;28;20148;-83
2021/12/12 04:16:46;;;;;;;11.32;4.25;;;6.10;99.90;;;4.60;100.00;101050.41;5070794;28;20118;-83
2021/12/12 04:19:14;;;;;;;12.55;4.03;;;6.10;99.90;;;4.60;100.00;101047.72;5067691;28;20151;-83
2021/12/12 04:21:43;;;;;;;13.93;4.00;;;6.10;99.90;;;4.63;100.00;101044.78;5070322;28;20072;-83
2021/12/12 04:24:18;;;;;;;13.05;4.28;;;6.10;99.90;;;4.64;100.00;101052.69;5070525;28;20127;-83
2021/12/12 04:26:46;;;;;;;14.35;4.40;;;6.10;99.90;;;4.63;100.00;101056.41;5070528;28;20140;-83
2021/12/12 04:29:17;;;;;;;15.90;4.47;;;6.20;99.90;;;4.65;100.00;101056.28;5052600;28;20378;-83
2021/12/12 04:31:49;;;;;;;12.73;3.97;;;6.20;99.90;;;4.69;100.00;101055.88;5070342;28;20053;-83
2021/12/12 04:34:18;;;;;;;16.48;4.53;;;6.20;99.90;;;4.68;100.00;101048.78;5070353;28;20044;-83
2021/12/12 04:36:48;;;;;;;14.10;4.15;;;6.20;99.90;;;4.68;100.00;101054.16;5070307;28;20048;-83
2021/12/12 04:39:19;;;;;;;13.27;4.05;;;6.20;99.90;;;4.65;100.00;101049.03;5070406;28;20467;-83
2021/12/12 04:41:51;;;;;;;;;;;6.20;99.90;;;4.66;100.00;101048.06;5070538;28;20044;-83
2021/12/12 04:44:22;;;;;;;16.92;4.10;;;6.20;99.90;;;4.67;100.00;101046.22;5070243;28;20372;-83
2021/12/12 04:49:58;;;;;;;10.75;3.90;;;6.20;99.90;;;4.68;100.00;101047.91;5051962;28;20045;-83
2021/12/12 04:52:33;;;;;;;18.05;4.10;;;6.20;99.90;;;4.66;100.00;101045.38;5068773;28;20124;-83
2021/12/12 04:55:07;;;;;;;21.35;5.18;;;6.20;99.90;;;4.68;100.00;101047.91;5069580;28;20771;-83
2021/12/12 04:57:44;;;;;;;17.08;4.40;;;6.20;99.90;;;4.69;100.00;101050.47;5070229;28;20098;-83
2021/12/12 05:00:21;;;;;;;11.73;4.13;;;6.20;99.90;;;4.71;100.00;101058.44;5069935;28;20052;-83
2021/12/12 05:03:01;;;;;;;15.00;4.80;;;6.20;99.90;;;4.73;100.00;101051.06;5069585;28;20106;-83
2021/12/12 05:05:40;;;;;;;17.07;4.70;;;6.30;99.90;;;4.72;100.00;101049.34;5069740;28;20510;-83
2021/12/12 05:08:14;;;;;;;13.13;4.22;;;6.30;99.90;;;4.72;100.00;101045.78;5069754;28;20314;-83
2021/12/12 05:10:50;;;;;;;13.55;4.45;;;6.30;99.90;;;4.76;100.00;101044.53;5069771;28;20472;-83
2021/12/12 05:13:24;;;;;;;21.30;4.80;;;6.30;99.90;;;4.75;100.00;101035.59;5069506;28;20041;-83
2021/12/12 05:15:57;;;;;;;17.52;5.18;;;6.30;99.90;;;4.70;100.00;101044.09;5069562;28;20041;-83
2021/12/12 05:18:32;;;;;;;17.35;4.75;;;6.30;99.90;;;4.73;100.00;101034.03;5069760;28;20048;-83
2021/12/12 05:21:06;;;;;;;14.32;5.13;;;6.30;99.90;;;4.76;100.00;101029.25;5069439;28;20120;-83
2021/12/12 05:23:35;;;;;;;15.52;4.20;;;6.30;99.90;;;4.77;100.00;101030.94;5069486;28;20072;-83
2021/12/12 05:26:10;;;;;;;10.40;4.72;;;6.30;99.90;;;4.80;100.00;101032.53;5069372;28;20664;-83
2021/12/12 05:28:47;;;;;;;12.73;4.65;;;6.30;99.90;;;4.78;100.00;101038.03;5069431;28;20048;-83
2021/12/12 05:31:15;;;;;;;19.90;4.93;;;6.30;99.90;;;4.79;100.00;101034.34;5069071;28;20044;-83
2021/12/12 05:33:44;;;;;;;16.08;4.82;;;6.30;99.90;;;4.68;100.00;101043.38;5069262;28;20127;-83
2021/12/12 05:36:13;;;;;;;16.42;4.93;;;6.30;99.90;;;4.66;100.00;101026.50;5069231;28;20070;-83
2021/12/12 05:38:42;;;;;;;17.50;4.65;;;6.40;99.90;;;4.67;100.00;101030.03;5069182;28;20125;-83
2021/12/12 05:41:10;;;;;;;13.32;4.60;;;6.40;99.90;;;4.66;100.00;101023.78;5083777;28;20123;-83
2021/12/12 05:43:39;;;;;;;22.40;6.45;;;6.40;99.90;;;4.64;100.00;101027.59;5089236;28;20050;-83
2021/12/12 05:46:07;;;;;;;18.42;5.07;;;6.40;99.90;;;4.58;100.00;101010.09;5089297;28;20403;-83
2021/12/12 05:48:34;;;;;;;15.43;5.28;;;6.40;99.90;;;4.65;100.00;101014.00;5089232;28;20130;-83
2021/12/12 05:51:03;;;;;;;15.60;5.18;;;6.40;99.90;;;4.69;100.00;101015.41;5089005;28;20075;-83
2021/12/12 05:53:30;;;;;;;13.13;4.97;;;6.40;99.90;;;4.73;100.00;101015.16;5088941;28;20028;-83
2021/12/12 05:55:58;;;;;;;15.98;5.45;;;6.40;99.90;;;4.70;100.00;101011.75;5089108;28;20111;-83
2021/12/12 05:58:26;;;;;;;15.30;5.15;;;6.40;99.90;;;4.69;100.00;101007.34;5089014;28;20051;-83
2021/12/12 06:00:59;;;;;;;15.82;4.95;;;6.40;99.90;;;4.72;100.00;101000.81;5070678;28;20162;-83
2021/12/12 06:03:30;;;;;;;15.77;4.70;;;6.40;99.90;;;4.75;100.00;100995.16;5088862;28;20063;-83
2021/12/12 06:06:00;;;;;;;17.63;5.85;;;6.40;99.90;;;4.75;100.00;100995.16;5088062;28;20079;-83
2021/12/12 06:08:29;;;;;;;15.55;5.00;;;6.40;99.90;;;4.76;100.00;100996.88;5089167;28;20064;-83
2021/12/12 06:10:56;;;;;;;16.95;4.90;;;6.40;99.90;;;4.79;100.00;100995.75;5088709;28;20048;-83
2021/12/12 06:13:24;;;;;;;13.32;5.35;;;6.40;99.90;;;4.84;100.00;101001.59;5088792;28;20126;-83
2021/12/12 06:15:58;;;;;;;13.02;4.57;;;6.40;99.90;;;4.85;100.00;101008.69;5088672;28;20052;-83
2021/12/12 06:18:31;;;;;;;17.50;5.45;;;6.40;99.90;;;4.84;100.00;101009.69;5088716;28;20067;-83
2021/12/12 06:20:59;;;;;;;14.43;5.15;;;6.50;99.90;;;4.87;100.00;101012.09;5084907;28;20044;-83
2021/12/12 06:23:28;;;;;;;11.63;5.13;;;6.40;99.90;;;4.78;100.00;101005.69;5067405;28;20040;-83
2021/12/12 06:25:56;;;;;;;14.75;5.45;;;6.40;99.90;;;4.81;100.00;101004.56;5068378;28;20041;-83
2021/12/12 06:28:28;;;;;;;15.55;6.10;;;6.40;99.90;;;4.80;100.00;101013.66;5068470;28;20120;-83
2021/12/12 06:30:58;;;;;;;14.32;5.72;;;6.40;99.90;;;4.85;100.00;101016.78;5050374;28;20040;-83
2021/12/12 06:33:26;;;;;;;14.13;5.15;;;6.40;99.90;;;4.86;100.00;101021.19;5068258;28;20524;-83
2021/12/12 06:35:54;;;;;;;18.27;5.15;;;6.50;99.90;;;4.84;100.00;101004.28;5068388;28;20048;-83
2021/12/12 06:38:23;;;;;;;10.30;4.50;;;6.50;99.90;;;4.84;100.00;101010.53;5068200;28;20040;-83
2021/12/12 06:40:52;;;;;;;11.48;4.82;;;6.50;99.90;;;4.86;100.00;101000.47;5078654;28;20127;-83
2021/12/12 06:43:22;;;;;;;14.75;5.05;;;6.50;99.90;;;4.88;100.00;101000.34;5065890;28;20106;-83
2021/12/12 06:45:50;;;;;;;11.82;4.90;;;6.70;99.90;;;4.91;100.00;101005.44;5068700;28;20064;-83
2021/12/12 06:48:20;;;;;;;11.60;4.53;;;6.50;99.90;;;4.88;100.00;101011.97;5068201;28;20046;-83
2021/12/12 06:50:52;;;;;;;12.80;5.03;;;6.50;99.90;;;4.89;100.00;101013.69;5068119;28;20431;-83
2021/12/12 06:53:26;;;;;;;13.02;6.32;;;6.50;99.90;;;4.94;100.00;101018.66;5066981;28;20072;-83
2021/12/12 06:55:57;;;;;;;15.15;6.00;;;6.50;99.90;;;4.95;100.00;101022.19;5068038;28;20463;-83
2021/12/12 06:58:29;;;;;;;10.48;4.82;;;6.50;99.90;;;4.96;100.00;101027.47;5068284;28;20108;-83
2021/12/12 07:01:01;;;;;;;13.30;4.90;;;6.50;99.90;;;5.00;100.00;101019.97;5068061;28;20090;-83
2021/12/12 07:03:31;;;;;;;13.23;4.60;;;6.50;99.90;;;4.97;100.00;101015.69;5067915;28;20714;-85
2021/12/12 07:05:59;;;;;;;12.15;4.75;;;6.60;99.90;;;4.97;100.00;101015.69;5067178;28;20048;-83
2021/12/12 07:08:27;;;;;;;13.25;5.13;;;6.60;99.90;;;4.94;100.00;101007.03;5067874;28;20072;-88
2021/12/12 07:10:55;;;;;;;8.40;4.65;;;6.60;99.90;;;4.99;100.00;101012.84;5068175;28;20068;-87
2021/12/12 07:13:23;;;;;;;11.25;4.50;;;6.60;99.90;;;4.96;100.00;101019.38;5067761;28;20045;-87
2021/12/12 07:15:56;;;;;;;12.30;4.82;;;6.60;99.90;;;4.97;100.00;101012.13;5068657;28;20053;-83
2021/12/12 07:18:30;;;;;;;9.55;4.40;;;6.60;99.90;;;4.99;100.00;101013.72;5053480;28;20570;-83
2021/12/12 07:21:03;;;;;;;8.80;4.60;;;6.60;99.90;;;4.99;100.00;101005.63;5072928;28;20044;-83
2021/12/12 07:23:31;;;;;;;8.20;4.35;;;6.60;99.90;;;4.97;100.00;101002.22;5051741;28;20130;-83
2021/12/12 07:26:01;;;;;;;10.75;4.40;;;6.60;99.90;;;4.95;100.00;101006.03;5051541;28;20119;-83
2021/12/12 07:28:31;;;;;;;9.07;4.15;;;6.60;99.90;;;5.00;100.00;101004.63;5051518;28;20590;-86
2021/12/12 07:31:01;;;;;;;9.30;4.30;;;6.60;99.90;;;4.96;100.00;100997.78;5051470;28;20135;-82
2021/12/12 07:33:31;;;;;;;7.20;3.80;;;6.60;99.90;;;4.99;100.00;101002.94;5051373;28;20048;-83
2021/12/12 07:36:01;;;;;;;9.15;4.15;;;6.70;99.90;;;4.95;100.00;100998.81;5051545;28;20160;-83
2021/12/12 07:38:30;;;;;;;10.63;4.43;;;6.60;99.90;;;4.96;100.00;100991.56;5051578;28;20072;-84
2021/12/12 07:41:00;;;;;;;6.93;3.58;;;6.70;99.90;;;5.01;100.00;101006.34;5077949;28;20048;-82
2021/12/12 07:43:29;;;;;;;7.90;3.13;;;6.70;99.90;;;5.01;100.00;101017.13;5091546;28;20662;-84
2021/12/12 07:45:57;;;;;;;10.63;3.80;;;6.70;99.90;;;5.06;100.00;101016.72;5091428;28;20036;-85
2021/12/12 07:48:25;;;;;;;8.95;3.47;;;6.70;99.90;;;5.01;100.00;101017.13;5091658;28;20044;-84
2021/12/12 07:50:54;;;;;;;6.97;3.60;;;6.70;99.90;;;4.98;100.00;101011.16;5091702;28;20124;-84
2021/12/12 07:53:26;;;;;;;6.55;3.40;;;6.70;99.90;;;5.05;100.00;101013.16;5091485;28;20043;-85
2021/12/12 07:55:56;;;;;;;6.80;3.25;;;6.70;99.90;;;5.13;100.00;101011.63;5091549;28;20082;-85
2021/12/12 07:58:24;;;;;;;9.75;4.50;;;6.70;99.90;;;5.06;100.00;101012.19;5091267;28;20135;-85
2021/12/12 08:00:55;;;;;;;7.05;3.72;;;6.70;99.90;;;5.11;100.00;101017.16;5051181;28;20144;-83
2021/12/12 08:03:28;;;;;;;6.45;3.58;;;6.70;99.90;;;5.13;100.00;101020.56;5032820;28;20041;-86
2021/12/12 08:06:00;;;;;;;8.55;3.33;;;6.80;99.90;;;5.11;100.00;101021.72;5050914;28;20080;-86
2021/12/12 08:08:29;;;;;;;6.38;3.35;;;6.70;99.90;;;5.18;100.00;101020.16;5050930;28;20741;-87
2021/12/12 08:10:59;;;;;;;8.38;3.88;;;6.80;99.90;;;5.11;100.00;101019.03;5050621;28;20057;-86
2021/12/12 08:13:27;;;;;;;7.90;3.50;;;6.80;99.90;;;5.19;100.00;101029.97;5050918;28;20455;-85
2021/12/12 08:15:56;;;;;;;6.72;3.35;;;6.80;99.90;;;5.18;100.00;101022.84;5060286;28;20101;-85
2021/12/12 08:18:24;;;;;;;6.38;3.15;;;6.80;99.90;;;5.20;100.00;101024.44;5070943;28;20049;-86
2021/12/12 08:20:53;;;;;;;6.90;3.67;;;6.80;99.90;;;5.25;100.00;101037.50;5070786;28;20055;-88
2021/12/12 08:23:23;;;;;;;6.65;3.58;;;6.80;99.90;;;5.27;100.00;101049.91;5070592;28;20059;-86
2021/12/12 08:25:55;;;;;;;8.40;4.07;;;6.80;99.90;;;5.29;100.00;101060.53;5070646;28;20531;-85
2021/12/12 08:28:55;;;;;;;10.48;4.03;;;6.90;99.90;;;5.19;100.00;101056.94;5069570;28;20044;-85
2021/12/12 08:31:23;;;;;;;6.50;3.35;;;6.90;99.90;;;5.25;100.00;101078.88;5064339;28;20579;-85
2021/12/12 08:33:50;;;;;;;8.73;3.78;;;6.90;99.90;;;5.24;100.00;101077.13;5070266;28;20041;-85
2021/12/12 08:36:18;;;;;;;8.88;3.95;;;6.90;99.90;;;5.27;100.00;101098.47;5070797;28;20106;-85
2021/12/12 08:38:47;;;;;;;6.90;3.55;;;6.90;99.90;;;5.29;100.00;101109.09;5070579;28;20308;-89
2021/12/12 08:41:24;;;;;;;5.97;3.40;;;6.90;99.90;;;5.29;100.00;101109.97;5085778;28;20072;-86
2021/12/12 08:43:52;;;;;;;6.32;3.45;;;6.90;99.90;;;5.28;100.00;101097.47;5055480;28;20098;-85
2021/12/12 08:46:21;;;;;;;10.10;3.63;;;7.00;99.90;;;5.33;100.00;101102.47;5068497;28;20576;-85
2021/12/12 08:48:52;;;;;;;9.02;4.10;;;6.90;99.90;;;5.34;100.00;101098.75;5069991;28;20564;-85
2021/12/12 08:51:31;;;;;;;5.53;3.15;;;6.90;99.90;;;5.35;100.00;101097.78;5069970;28;20527;-84
2021/12/12 08:54:13;;;;;;;5.45;3.30;;;7.00;99.90;;;5.34;100.00;101097.91;5051396;28;20109;-85
2021/12/12 08:56:55;;;;;;;8.23;3.80;;;6.90;99.90;;;5.32;100.00;101089.94;5070292;28;20044;-85
2021/12/12 08:59:26;;;;;;;6.50;3.95;;;7.00;99.90;;;5.31;100.00;101088.22;5078506;28;20115;-85
2021/12/12 09:01:56;;;;;;;;;;;7.00;99.90;;;5.40;100.00;101076.63;5092414;28;20103;-84
2021/12/12 09:04:50;;;;;;;10.52;3.38;;;7.00;99.90;;;5.45;100.00;101087.03;5092372;28;19967;-85
2021/12/12 09:07:35;;;;;;;7.18;4.07;;;7.00;99.90;;;5.43;100.00;101087.16;5093510;28;20055;-85
2021/12/12 09:10:11;;;;;;;7.45;3.88;;;7.00;99.90;;;5.47;100.00;101099.38;5089973;28;20050;-84
2021/12/12 09:12:42;;;;;;;7.20;3.80;;;6.90;99.90;;;5.44;100.00;101088.84;5088132;28;20111;-85
2021/12/12 09:15:17;;;;;;;6.97;3.97;;;7.00;99.90;;;5.48;100.00;101094.81;5089911;28;20132;-85
2021/12/12 09:17:49;;;;;;;6.75;4.18;;;7.00;99.90;;;5.51;100.00;101088.31;5089858;28;20139;-85
2021/12/12 09:20:31;;;;;;;7.93;4.53;;;7.10;99.90;;;5.55;100.00;101097.84;5089921;28;20140;-85
2021/12/12 09:23:06;;;;;;;9.50;4.03;;;7.10;99.90;;;5.57;100.00;101098.56;5089614;28;20043;-85
2021/12/12 09:25:50;;;;;;;6.47;3.95;;;7.10;99.90;;;5.60;100.00;101104.53;5089479;28;20047;-84
2021/12/12 09:28:30;;;;;;;7.53;4.57;;;7.10;99.90;;;5.64;100.00;101099.72;5089715;28;20054;-84
2021/12/12 09:31:09;;;;;;;10.75;4.20;;;7.10;99.90;;;5.63;100.00;101108.81;5089524;28;20094;-84
2021/12/12 09:33:49;;;;;;;8.25;4.78;;;7.10;99.90;;;5.71;100.00;101100.84;5088359;28;20138;-82
2021/12/12 09:36:24;;;;;;;8.82;4.82;;;7.10;99.90;;;5.69;100.00;101105.53;5088173;28;20051;-83
2021/12/12 09:38:59;;;;;;;9.38;5.13;;;7.10;99.90;;;5.67;100.00;101107.53;5069720;28;20072;-84
2021/12/12 09:42:17;;;;;;;10.00;5.10;;;7.20;99.90;;;5.60;100.00;101093.75;5078617;28;20489;-87
2021/12/12 09:45:03;;;;;;;10.40;5.25;;;7.20;99.90;;;5.68;100.00;101098.44;5068695;28;20036;-84
2021/12/12 09:48:13;;;;;;;10.38;5.35;;;7.20;99.90;;;5.69;100.00;101097.44;5071543;28;20587;-83
2021/12/12 09:51:17;;;;;;;7.15;4.80;;;7.40;99.90;;;5.78;100.00;101104.72;5065952;28;20503;-83
2021/12/12 09:54:27;;;;;;;8.43;5.63;;;7.20;99.90;;;5.76;100.00;101104.00;5068258;28;20102;-83
2021/12/12 09:57:06;;;;;;;11.93;5.22;;;7.30;99.90;;;5.79;100.00;101114.53;5063335;28;20115;-83
2021/12/12 10:00:04;;;;;;;9.23;5.47;;;7.30;99.90;;;5.82;100.00;101113.41;5069479;28;20070;-83
2021/12/12 10:03:10;;;;;;;10.98;5.63;;;7.30;99.90;;;5.78;100.00;101107.41;5067006;28;20056;-83
2021/12/12 10:06:00;;;;;;;12.38;5.43;;;7.30;99.90;;;5.76;100.00;101100.47;5054474;28;20873;-83
2021/12/12 10:08:48;;;;;;;10.43;5.30;;;7.30;99.90;;;5.84;100.00;101114.09;5066179;28;20072;-83
2021/12/12 10:11:31;;;;;;;8.65;5.70;;;7.30;99.90;;;5.86;100.00;101104.91;5066221;28;20048;-83
2021/12/12 10:14:08;;;;;;;8.90;5.30;;;7.40;99.90;;;5.94;100.00;101100.63;5067918;28;20115;-83
2021/12/12 10:16:46;;;;;;;10.50;6.07;;;7.40;99.90;;;5.93;100.00;101104.31;5060887;28;20638;-83
2021/12/12 10:19:28;;;;;;;9.98;5.55;;;7.40;99.90;;;5.96;100.00;101109.47;5051430;28;20093;-83
2021/12/12 10:22:14;;;;;;;11.55;5.72;;;7.40;99.90;;;5.92;100.00;101102.59;5068880;28;20048;-83
2021/12/12 10:24:48;;;;;;;10.43;5.60;;;7.40;99.90;;;5.99;100.00;101103.78;5058360;28;20041;-83
2021/12/12 10:27:27;;;;;;;9.25;5.50;;;7.50;99.90;;;5.99;100.00;101103.78;5048586;28;20122;-83
2021/12/12 10:30:11;;;;;;;12.38;5.82;;;7.50;99.90;;;6.02;100.00;101098.13;5048458;28;20118;-83
2021/12/12 10:32:59;;;;;;;9.93;5.22;;;7.50;99.90;;;6.06;100.00;101104.94;5067738;28;20036;-83
2021/12/12 10:35:33;;;;;;;7.63;4.50;;;7.50;99.90;;;6.08;100.00;101094.84;5068267;28;20040;-83
2021/12/12 10:38:08;;;;;;;11.07;5.30;;;7.50;99.90;;;6.07;100.00;101096.72;5079986;28;20078;-83
2021/12/12 10:40:45;;;;;;;13.23;5.85;;;7.60;99.90;;;6.11;100.00;101102.69;5078738;28;20098;-83
2021/12/12 10:43:22;;;;;;;9.77;4.55;;;7.60;99.90;;;6.17;100.00;101103.94;5067870;28;20040;-83
2021/12/12 10:45:59;;;;;;;10.10;4.90;;;7.60;99.90;;;6.19;100.00;101101.97;5066903;28;20741;-84
2021/12/12 10:48:35;;;;;;;11.63;4.82;;;7.60;99.90;;;6.21;100.00;101092.72;5048451;28;20461;-83
2021/12/12 10:51:11;;;;;;;11.18;5.50;;;7.60;99.90;;;6.21;100.00;101092.72;5047298;28;20065;-83
2021/12/12 10:53:45;;;;;;;8.48;4.60;;;7.70;99.90;;;6.26;100.00;101094.97;5062141;28;20056;-83
2021/12/12 10:56:23;;;;;;;8.52;4.72;;;7.70;99.90;;;6.29;100.00;101101.97;5067208;28;20071;-83
2021/12/12 10:58:58;;;;;;;8.82;4.28;;;7.70;99.90;;;6.32;100.00;101098.97;5063542;28;20465;-83